Terminal Aerodrome Forecast
Issued by NWS

Home | Current Version | Previous Version | Text Only | Print | Product List | Glossary On
Versions: 1 2 3 4 5 6 7 8 9 10 11 12 13 14 15 16 17 18 19 20
000
FTUS41 KGYX 280900 AAA
TAFAUG
TAF AMD
KAUG 280900Z 2809/2906 36008KT P6SM OVC050
     FM281400 36010KT 5SM -SN BR OVC025
     FM281800 36008KT 3SM -SN BR OVC015
     FM282100 34006KT P6SM OVC035=

USA.gov is the U.S. government's official web portal to all federal, state and local government web resources and services.